sensor_id;sensor_type;location;lat;lon;timestamp;pressure;altitude;pressure_sealevel;temperature;humidity
70009;BME280;59542;37.950;-122.338;2022-12-07T00:01:23;101636.09;;;12.73;59.69
70009;BME280;59542;37.950;-122.338;2022-12-07T00:03:52;101628.66;;;12.81;59.36
70009;BME280;59542;37.950;-122.338;2022-12-07T00:06:19;101635.50;;;12.77;59.06
70009;BME280;59542;37.950;-122.338;2022-12-07T00:08:46;101632.34;;;12.67;59.17
70009;BME280;59542;37.950;-122.338;2022-12-07T00:11:18;101643.06;;;12.60;59.16
70009;BME280;59542;37.950;-122.338;2022-12-07T00:13:45;101643.41;;;12.51;59.23
70009;BME280;59542;37.950;-122.338;2022-12-07T00:16:17;101649.97;;;12.41;59.49
70009;BME280;59542;37.950;-122.338;2022-12-07T00:18:44;101645.50;;;12.21;60.50
70009;BME280;59542;37.950;-122.338;2022-12-07T00:23:39;101659.69;;;12.08;61.16
70009;BME280;59542;37.950;-122.338;2022-12-07T00:26:11;101657.94;;;12.22;60.43
70009;BME280;59542;37.950;-122.338;2022-12-07T00:28:38;101656.84;;;12.16;60.94
70009;BME280;59542;37.950;-122.338;2022-12-07T00:31:10;101662.94;;;12.03;61.32
70009;BME280;59542;37.950;-122.338;2022-12-07T00:33:38;101650.81;;;12.07;61.65
70009;BME280;59542;37.950;-122.338;2022-12-07T00:36:08;101658.03;;;12.07;61.47
70009;BME280;59542;37.950;-122.338;2022-12-07T00:38:36;101655.06;;;12.30;60.67
70009;BME280;59542;37.950;-122.338;2022-12-07T00:41:05;101665.50;;;11.83;62.02
70009;BME280;59542;37.950;-122.338;2022-12-07T00:43:32;101664.34;;;11.99;61.36
70009;BME280;59542;37.950;-122.338;2022-12-07T00:45:58;101664.59;;;12.04;60.99
70009;BME280;59542;37.950;-122.338;2022-12-07T00:48:25;101672.09;;;12.15;60.85
70009;BME280;59542;37.950;-122.338;2022-12-07T00:50:51;101668.50;;;12.02;61.39
70009;BME280;59542;37.950;-122.338;2022-12-07T00:53:18;101674.91;;;12.01;60.83
70009;BME280;59542;37.950;-122.338;2022-12-07T00:55:45;101678.00;;;12.04;60.89
70009;BME280;59542;37.950;-122.338;2022-12-07T00:58:11;101680.59;;;12.19;60.37
70009;BME280;59542;37.950;-122.338;2022-12-07T01:00:40;101677.75;;;11.99;61.06
70009;BME280;59542;37.950;-122.338;2022-12-07T01:03:08;101683.91;;;11.93;61.33
70009;BME280;59542;37.950;-122.338;2022-12-07T01:05:35;101681.09;;;12.01;61.09
70009;BME280;59542;37.950;-122.338;2022-12-07T01:08:01;101686.84;;;11.98;61.42
70009;BME280;59542;37.950;-122.338;2022-12-07T01:10:28;101690.34;;;11.99;61.40
70009;BME280;59542;37.950;-122.338;2022-12-07T01:12:56;101695.75;;;11.77;61.86
70009;BME280;59542;37.950;-122.338;2022-12-07T01:15:22;101698.34;;;11.92;61.71
70009;BME280;59542;37.950;-122.338;2022-12-07T01:17:48;101707.28;;;11.78;62.24
70009;BME280;59542;37.950;-122.338;2022-12-07T01:20:15;101702.53;;;11.95;61.15
70009;BME280;59542;37.950;-122.338;2022-12-07T01:22:42;101698.66;;;12.04;61.43
70009;BME280;59542;37.950;-122.338;2022-12-07T01:25:10;101705.75;;;12.11;61.53
70009;BME280;59542;37.950;-122.338;2022-12-07T01:27:37;101708.56;;;12.03;61.81
70009;BME280;59542;37.950;-122.338;2022-12-07T01:30:05;101713.44;;;12.21;60.93
70009;BME280;59542;37.950;-122.338;2022-12-07T01:32:33;101712.53;;;12.07;61.36
70009;BME280;59542;37.950;-122.338;2022-12-07T01:34:59;101706.84;;;11.96;61.88
70009;BME280;59542;37.950;-122.338;2022-12-07T01:37:25;101703.28;;;11.67;62.70
70009;BME280;59542;37.950;-122.338;2022-12-07T01:39:52;101710.28;;;11.68;62.95
70009;BME280;59542;37.950;-122.338;2022-12-07T01:42:18;101710.06;;;11.84;62.39
70009;BME280;59542;37.950;-122.338;2022-12-07T01:47:55;101717.13;;;11.49;64.89
70009;BME280;59542;37.950;-122.338;2022-12-07T01:50:26;101717.19;;;11.20;67.54
70009;BME280;59542;37.950;-122.338;2022-12-07T01:52:56;101713.75;;;11.26;67.30
70009;BME280;59542;37.950;-122.338;2022-12-07T01:55:25;101716.72;;;11.52;67.53
70009;BME280;59542;37.950;-122.338;2022-12-07T01:57:53;101717.72;;;11.66;67.04
70009;BME280;59542;37.950;-122.338;2022-12-07T02:00:20;101720.22;;;11.31;67.22
70009;BME280;59542;37.950;-122.338;2022-12-07T02:03:12;101711.16;;;10.96;68.01
70009;BME280;59542;37.950;-122.338;2022-12-07T02:05:42;101712.09;;;10.89;67.53
70009;BME280;59542;37.950;-122.338;2022-12-07T02:08:10;101714.47;;;10.98;67.30
70009;BME280;59542;37.950;-122.338;2022-12-07T02:10:36;101712.75;;;10.91;67.45
70009;BME280;59542;37.950;-122.338;2022-12-07T02:13:15;101717.47;;;10.89;67.34
70009;BME280;59542;37.950;-122.338;2022-12-07T02:30:18;101726.50;;;10.58;66.99
70009;BME280;59542;37.950;-122.338;2022-12-07T02:36:00;101730.84;;;10.44;67.35
70009;BME280;59542;37.950;-122.338;2022-12-07T02:41:46;101736.19;;;10.29;67.78
70009;BME280;59542;37.950;-122.338;2022-12-07T02:44:17;101742.53;;;10.43;67.47
70009;BME280;59542;37.950;-122.338;2022-12-07T02:46:51;101739.13;;;10.35;67.60
70009;BME280;59542;37.950;-122.338;2022-12-07T02:49:22;101744.06;;;10.23;67.88
70009;BME280;59542;37.950;-122.338;2022-12-07T02:51:50;101745.34;;;10.12;67.94
70009;BME280;59542;37.950;-122.338;2022-12-07T02:54:19;101744.69;;;10.33;67.56
70009;BME280;59542;37.950;-122.338;2022-12-07T02:56:48;101752.03;;;10.31;67.61
70009;BME280;59542;37.950;-122.338;2022-12-07T03:07:55;101759.19;;;9.93;69.20
70009;BME280;59542;37.950;-122.338;2022-12-07T03:13:07;101758.72;;;9.89;69.93
70009;BME280;59542;37.950;-122.338;2022-12-07T03:18:22;101761.63;;;9.25;71.41
70009;BME280;59542;37.950;-122.338;2022-12-07T03:20:52;101776.13;;;9.31;71.09
70009;BME280;59542;37.950;-122.338;2022-12-07T03:23:19;101772.88;;;9.13;71.76
70009;BME280;59542;37.950;-122.338;2022-12-07T03:25:55;101778.75;;;9.08;72.00
70009;BME280;59542;37.950;-122.338;2022-12-07T03:28:25;101769.59;;;9.03;72.08
70009;BME280;59542;37.950;-122.338;2022-12-07T03:30:57;101768.41;;;9.05;72.17
70009;BME280;59542;37.950;-122.338;2022-12-07T03:33:33;101779.25;;;9.04;72.12
70009;BME280;59542;37.950;-122.338;2022-12-07T03:36:08;101776.94;;;9.01;72.17
70009;BME280;59542;37.950;-122.338;2022-12-07T03:38:42;101774.78;;;8.96;72.11
70009;BME280;59542;37.950;-122.338;2022-12-07T03:41:27;101779.78;;;8.99;72.30
70009;BME280;59542;37.950;-122.338;2022-12-07T03:43:55;101782.31;;;8.92;72.77
70009;BME280;59542;37.950;-122.338;2022-12-07T03:49:30;101792.72;;;9.18;72.24
70009;BME280;59542;37.950;-122.338;2022-12-07T03:57:31;101798.91;;;9.19;72.44
70009;BME280;59542;37.950;-122.338;2022-12-07T03:59:59;101800.75;;;9.18;72.06
70009;BME280;59542;37.950;-122.338;2022-12-07T04:02:27;101804.03;;;8.89;72.65
70009;BME280;59542;37.950;-122.338;2022-12-07T04:04:55;101794.06;;;8.67;73.15
70009;BME280;59542;37.950;-122.338;2022-12-07T04:07:22;101802.41;;;8.64;73.52
70009;BME280;59542;37.950;-122.338;2022-12-07T04:09:48;101800.09;;;8.44;74.82
70009;BME280;59542;37.950;-122.338;2022-12-07T04:12:15;101805.59;;;8.51;74.71
70009;BME280;59542;37.950;-122.338;2022-12-07T04:14:41;101807.28;;;8.36;75.47
70009;BME280;59542;37.950;-122.338;2022-12-07T04:17:08;101815.94;;;8.46;75.05
70009;BME280;59542;37.950;-122.338;2022-12-07T04:19:35;101818.44;;;8.39;75.10
70009;BME280;59542;37.950;-122.338;2022-12-07T04:22:02;101817.75;;;8.62;75.15
70009;BME280;59542;37.950;-122.338;2022-12-07T04:24:29;101819.84;;;8.91;75.38
70009;BME280;59542;37.950;-122.338;2022-12-07T04:26:55;101817.38;;;8.81;75.49
70009;BME280;59542;37.950;-122.338;2022-12-07T04:29:22;101821.22;;;8.79;75.36
70009;BME280;59542;37.950;-122.338;2022-12-07T04:31:48;101816.94;;;8.61;76.15
70009;BME280;59542;37.950;-122.338;2022-12-07T04:34:15;101815.59;;;8.57;76.26
70009;BME280;59542;37.950;-122.338;2022-12-07T04:36:43;101824.59;;;8.56;76.18
70009;BME280;59542;37.950;-122.338;2022-12-07T04:39:30;101832.78;;;8.38;76.62
70009;BME280;59542;37.950;-122.338;2022-12-07T04:41:58;101825.75;;;8.29;76.82
70009;BME280;59542;37.950;-122.338;2022-12-07T04:44:26;101834.25;;;8.25;77.77
70009;BME280;59542;37.950;-122.338;2022-12-07T04:46:54;101829.22;;;8.21;77.58
70009;BME280;59542;37.950;-122.338;2022-12-07T04:49:21;101830.91;;;8.31;77.58
70009;BME280;59542;37.950;-122.338;2022-12-07T04:51:47;101832.56;;;8.32;77.73
70009;BME280;59542;37.950;-122.338;2022-12-07T04:54:15;101841.94;;;8.28;78.03
70009;BME280;59542;37.950;-122.338;2022-12-07T04:56:41;101847.09;;;8.29;77.77
70009;BME280;59542;37.950;-122.338;2022-12-07T04:59:09;101847.25;;;8.28;78.12
70009;BME280;59542;37.950;-122.338;2022-12-07T05:01:36;101846.25;;;8.29;78.69
70009;BME280;59542;37.950;-122.338;2022-12-07T05:04:03;101846.28;;;8.37;78.27
70009;BME280;59542;37.950;-122.338;2022-12-07T05:06:29;101848.13;;;8.44;77.45
70009;BME280;59542;37.950;-122.338;2022-12-07T05:08:55;101841.41;;;8.24;77.79
70009;BME280;59542;37.950;-122.338;2022-12-07T05:11:21;101846.56;;;8.26;77.38
70009;BME280;59542;37.950;-122.338;2022-12-07T05:14:15;101848.41;;;8.25;77.48
70009;BME280;59542;37.950;-122.338;2022-12-07T05:16:43;101843.63;;;8.45;77.10
70009;BME280;59542;37.950;-122.338;2022-12-07T05:19:11;101842.41;;;8.31;77.42
70009;BME280;59542;37.950;-122.338;2022-12-07T05:21:38;101842.25;;;8.16;77.89
70009;BME280;59542;37.950;-122.338;2022-12-07T05:24:05;101843.91;;;8.09;77.78
70009;BME280;59542;37.950;-122.338;2022-12-07T05:26:32;101844.06;;;8.08;77.28
70009;BME280;59542;37.950;-122.338;2022-12-07T05:28:59;101842.59;;;8.30;76.35
70009;BME280;59542;37.950;-122.338;2022-12-07T05:31:26;101853.06;;;8.07;76.70
70009;BME280;59542;37.950;-122.338;2022-12-07T05:33:53;101850.56;;;8.21;75.62
70009;BME280;59542;37.950;-122.338;2022-12-07T05:36:19;101845.03;;;7.99;75.81
70009;BME280;59542;37.950;-122.338;2022-12-07T05:38:46;101843.69;;;7.86;76.12
70009;BME280;59542;37.950;-122.338;2022-12-07T05:41:17;101843.84;;;7.77;75.97
70009;BME280;59542;37.950;-122.338;2022-12-07T05:44:01;101846.84;;;7.82;75.38
70009;BME280;59542;37.950;-122.338;2022-12-07T05:46:28;101842.81;;;7.70;75.62
70009;BME280;59542;37.950;-122.338;2022-12-07T05:48:54;101851.31;;;7.65;75.77
70009;BME280;59542;37.950;-122.338;2022-12-07T05:51:21;101851.31;;;7.65;75.49
70009;BME280;59542;37.950;-122.338;2022-12-07T05:53:47;101844.19;;;7.74;74.91
70009;BME280;59542;37.950;-122.338;2022-12-07T05:56:14;101841.41;;;7.49;76.00
70009;BME280;59542;37.950;-122.338;2022-12-07T05:58:40;101841.94;;;7.45;76.07
70009;BME280;59542;37.950;-122.338;2022-12-07T06:01:25;101846.09;;;7.47;76.57
70009;BME280;59542;37.950;-122.338;2022-12-07T06:03:51;101846.38;;;7.36;76.59
70009;BME280;59542;37.950;-122.338;2022-12-07T06:06:17;101846.44;;;7.52;75.87
70009;BME280;59542;37.950;-122.338;2022-12-07T06:08:44;101841.41;;;7.41;76.37
70009;BME280;59542;37.950;-122.338;2022-12-07T06:11:10;101850.56;;;7.38;76.04
70009;BME280;59542;37.950;-122.338;2022-12-07T06:13:54;101850.00;;;7.27;76.15
70009;BME280;59542;37.950;-122.338;2022-12-07T06:16:21;101852.94;;;7.58;75.65
70009;BME280;59542;37.950;-122.338;2022-12-07T06:18:47;101848.41;;;7.42;76.10
70009;BME280;59542;37.950;-122.338;2022-12-07T06:21:13;101855.47;;;7.25;76.42
70009;BME280;59542;37.950;-122.338;2022-12-07T06:23:40;101855.66;;;7.24;76.20
70009;BME280;59542;37.950;-122.338;2022-12-07T06:26:06;101853.94;;;7.14;76.48
70009;BME280;59542;37.950;-122.338;2022-12-07T06:28:32;101853.22;;;7.04;76.74
70009;BME280;59542;37.950;-122.338;2022-12-07T06:31:00;101853.47;;;6.93;77.09
70009;BME280;59542;37.950;-122.338;2022-12-07T06:33:28;101854.09;;;6.87;77.17
70009;BME280;59542;37.950;-122.338;2022-12-07T06:35:55;101849.13;;;6.84;77.21
70009;BME280;59542;37.950;-122.338;2022-12-07T06:38:21;101856.47;;;6.90;77.15
70009;BME280;59542;37.950;-122.338;2022-12-07T06:40:48;101852.91;;;6.81;77.53
70009;BME280;59542;37.950;-122.338;2022-12-07T06:43:14;101848.41;;;6.82;77.00
70009;BME280;59542;37.950;-122.338;2022-12-07T06:45:41;101846.75;;;6.81;77.02
70009;BME280;59542;37.950;-122.338;2022-12-07T06:48:07;101849.31;;;6.91;76.16
70009;BME280;59542;37.950;-122.338;2022-12-07T06:50:34;101848.88;;;6.77;76.25
70009;BME280;59542;37.950;-122.338;2022-12-07T06:53:00;101850.88;;;6.75;76.16
70009;BME280;59542;37.950;-122.338;2022-12-07T06:55:26;101855.06;;;6.78;76.05
70009;BME280;59542;37.950;-122.338;2022-12-07T06:57:52;101855.91;;;6.60;76.33
70009;BME280;59542;37.950;-122.338;2022-12-07T07:00:19;101850.09;;;6.57;76.42
70009;BME280;59542;37.950;-122.338;2022-12-07T07:02:45;101855.25;;;6.58;76.29
70009;BME280;59542;37.950;-122.338;2022-12-07T07:05:11;101863.84;;;6.52;76.35
70009;BME280;59542;37.950;-122.338;2022-12-07T07:07:37;101868.16;;;6.53;76.60
70009;BME280;59542;37.950;-122.338;2022-12-07T07:10:04;101878.97;;;6.52;76.57
70009;BME280;59542;37.950;-122.338;2022-12-07T07:12:31;101885.97;;;6.53;76.80
70009;BME280;59542;37.950;-122.338;2022-12-07T07:14:57;101887.94;;;6.51;76.60
70009;BME280;59542;37.950;-122.338;2022-12-07T07:17:23;101895.84;;;6.43;76.95
70009;BME280;59542;37.950;-122.338;2022-12-07T07:19:49;101889.31;;;6.37;76.92
70009;BME280;59542;37.950;-122.338;2022-12-07T07:22:15;101893.78;;;6.37;77.11
70009;BME280;59542;37.950;-122.338;2022-12-07T07:24:42;101903.28;;;6.21;78.49
70009;BME280;59542;37.950;-122.338;2022-12-07T07:27:08;101901.84;;;6.27;78.33
70009;BME280;59542;37.950;-122.338;2022-12-07T07:29:34;101904.44;;;6.19;78.55
70009;BME280;59542;37.950;-122.338;2022-12-07T07:32:00;101901.31;;;6.23;78.31
70009;BME280;59542;37.950;-122.338;2022-12-07T07:34:27;101901.59;;;6.38;76.68
70009;BME280;59542;37.950;-122.338;2022-12-07T07:36:53;101907.56;;;6.50;76.66
70009;BME280;59542;37.950;-122.338;2022-12-07T07:39:19;101910.53;;;6.29;76.79
70009;BME280;59542;37.950;-122.338;2022-12-07T07:41:46;101911.03;;;6.15;77.55
70009;BME280;59542;37.950;-122.338;2022-12-07T07:44:13;101905.19;;;6.11;77.49
70009;BME280;59542;37.950;-122.338;2022-12-07T07:46:39;101907.69;;;6.13;77.59
70009;BME280;59542;37.950;-122.338;2022-12-07T07:49:05;101910.97;;;6.06;77.84
70009;BME280;59542;37.950;-122.338;2022-12-07T07:51:31;101918.78;;;6.08;77.48
70009;BME280;59542;37.950;-122.338;2022-12-07T07:53:58;101907.31;;;6.07;77.38
70009;BME280;59542;37.950;-122.338;2022-12-07T07:56:24;101917.06;;;6.17;76.90
70009;BME280;59542;37.950;-122.338;2022-12-07T07:58:53;101921.50;;;5.98;77.10
70009;BME280;59542;37.950;-122.338;2022-12-07T08:01:19;101930.69;;;6.04;77.01
70009;BME280;59542;37.950;-122.338;2022-12-07T08:03:49;101924.16;;;5.98;77.01
70009;BME280;59542;37.950;-122.338;2022-12-07T08:06:15;101931.06;;;5.91;77.08
70009;BME280;59542;37.950;-122.338;2022-12-07T08:08:41;101921.81;;;5.95;77.35
70009;BME280;59542;37.950;-122.338;2022-12-07T08:11:08;101928.16;;;5.75;79.23
70009;BME280;59542;37.950;-122.338;2022-12-07T08:13:36;101928.09;;;5.20;84.24
70009;BME280;59542;37.950;-122.338;2022-12-07T08:16:09;101917.66;;;5.55;82.38
70009;BME280;59542;37.950;-122.338;2022-12-07T08:18:40;101919.91;;;5.78;80.97
70009;BME280;59542;37.950;-122.338;2022-12-07T08:21:09;101925.00;;;5.34;82.94
70009;BME280;59542;37.950;-122.338;2022-12-07T08:23:36;101923.38;;;5.14;84.75
70009;BME280;59542;37.950;-122.338;2022-12-07T08:26:04;101920.13;;;5.29;84.37
70009;BME280;59542;37.950;-122.338;2022-12-07T08:28:31;101915.25;;;5.25;85.34
70009;BME280;59542;37.950;-122.338;2022-12-07T08:31:06;101911.16;;;5.40;84.43
70009;BME280;59542;37.950;-122.338;2022-12-07T08:33:33;101908.88;;;5.45;84.20
70009;BME280;59542;37.950;-122.338;2022-12-07T08:36:04;101901.72;;;5.55;83.55
70009;BME280;59542;37.950;-122.338;2022-12-07T08:38:31;101902.00;;;5.52;83.66
70009;BME280;59542;37.950;-122.338;2022-12-07T08:40:58;101905.72;;;5.60;83.52
70009;BME280;59542;37.950;-122.338;2022-12-07T08:43:25;101888.59;;;5.72;82.65
70009;BME280;59542;37.950;-122.338;2022-12-07T08:46:11;101903.38;;;5.84;81.80
70009;BME280;59542;37.950;-122.338;2022-12-07T08:48:46;101890.53;;;5.79;81.82
70009;BME280;59542;37.950;-122.338;2022-12-07T08:51:15;101894.63;;;5.74;81.81
70009;BME280;59542;37.950;-122.338;2022-12-07T08:53:42;101899.19;;;5.81;81.39
70009;BME280;59542;37.950;-122.338;2022-12-07T08:56:09;101905.16;;;5.93;80.03
70009;BME280;59542;37.950;-122.338;2022-12-07T08:58:36;101908.97;;;5.81;80.30
70009;BME280;59542;37.950;-122.338;2022-12-07T09:01:04;101909.28;;;5.78;80.56
70009;BME280;59542;37.950;-122.338;2022-12-07T09:03:30;101904.41;;;5.73;80.21
70009;BME280;59542;37.950;-122.338;2022-12-07T09:05:57;101905.19;;;5.83;79.40
70009;BME280;59542;37.950;-122.338;2022-12-07T09:08:29;101897.34;;;5.82;78.55
70009;BME280;59542;37.950;-122.338;2022-12-07T09:10:57;101898.59;;;5.88;78.75
70009;BME280;59542;37.950;-122.338;2022-12-07T09:13:23;101896.00;;;5.78;79.40
70009;BME280;59542;37.950;-122.338;2022-12-07T09:15:49;101899.97;;;5.64;80.06
70009;BME280;59542;37.950;-122.338;2022-12-07T09:18:16;101901.06;;;5.71;80.58
70009;BME280;59542;37.950;-122.338;2022-12-07T09:20:42;101909.03;;;5.99;80.11
70009;BME280;59542;37.950;-122.338;2022-12-07T09:23:08;101904.19;;;5.94;79.97
70009;BME280;59542;37.950;-122.338;2022-12-07T09:25:34;101906.38;;;5.71;80.44
70009;BME280;59542;37.950;-122.338;2022-12-07T09:28:01;101905.03;;;5.95;79.50
70009;BME280;59542;37.950;-122.338;2022-12-07T09:30:28;101903.50;;;5.82;79.35
70009;BME280;59542;37.950;-122.338;2022-12-07T09:32:56;101920.44;;;6.09;78.52
70009;BME280;59542;37.950;-122.338;2022-12-07T09:35:23;101916.78;;;5.82;78.79
70009;BME280;59542;37.950;-122.338;2022-12-07T09:37:50;101917.91;;;5.62;79.74
70009;BME280;59542;37.950;-122.338;2022-12-07T09:40:17;101917.84;;;5.44;80.37
70009;BME280;59542;37.950;-122.338;2022-12-07T09:42:48;101916.50;;;5.58;80.22
70009;BME280;59542;37.950;-122.338;2022-12-07T09:45:24;101919.00;;;5.60;79.92
70009;BME280;59542;37.950;-122.338;2022-12-07T09:47:51;101919.41;;;5.65;79.58
70009;BME280;59542;37.950;-122.338;2022-12-07T09:50:27;101925.94;;;5.70;78.79
70009;BME280;59542;37.950;-122.338;2022-12-07T09:53:04;101919.75;;;5.52;79.45
70009;BME280;59542;37.950;-122.338;2022-12-07T09:55:33;101924.00;;;5.45;79.39
70009;BME280;59542;37.950;-122.338;2022-12-07T09:58:02;101923.34;;;5.33;79.68
70009;BME280;59542;37.950;-122.338;2022-12-07T10:00:29;101925.28;;;5.31;79.52
70009;BME280;59542;37.950;-122.338;2022-12-07T10:03:01;101923.03;;;5.36;78.95
70009;BME280;59542;37.950;-122.338;2022-12-07T10:05:34;101925.84;;;5.25;78.94
70009;BME280;59542;37.950;-122.338;2022-12-07T10:08:03;101924.22;;;5.04;79.47
70009;BME280;59542;37.950;-122.338;2022-12-07T10:10:32;101929.44;;;4.96;80.79
70009;BME280;59542;37.950;-122.338;2022-12-07T10:13:04;101928.34;;;5.26;79.53
70009;BME280;59542;37.950;-122.338;2022-12-07T10:15:45;101922.97;;;5.09;80.02
70009;BME280;59542;37.950;-122.338;2022-12-07T10:24:05;101932.06;;;5.06;79.71
70009;BME280;59542;37.950;-122.338;2022-12-07T10:34:50;101931.91;;;5.08;79.89
70009;BME280;59542;37.950;-122.338;2022-12-07T10:37:19;101942.94;;;5.13;79.99
70009;BME280;59542;37.950;-122.338;2022-12-07T10:39:51;101946.81;;;5.28;79.74
70009;BME280;59542;37.950;-122.338;2022-12-07T10:42:26;101954.41;;;5.03;80.10
70009;BME280;59542;37.950;-122.338;2022-12-07T10:48:17;101954.16;;;4.87;80.45
70009;BME280;59542;37.950;-122.338;2022-12-07T11:10:35;101960.47;;;4.67;81.32
70009;BME280;59542;37.950;-122.338;2022-12-07T11:15:53;101962.25;;;4.66;80.88
70009;BME280;59542;37.950;-122.338;2022-12-07T11:18:26;101955.41;;;4.64;80.87
70009;BME280;59542;37.950;-122.338;2022-12-07T11:21:17;101956.41;;;4.63;80.66
70009;BME280;59542;37.950;-122.338;2022-12-07T11:27:14;101957.38;;;4.62;80.28
70009;BME280;59542;37.950;-122.338;2022-12-07T11:29:49;101955.84;;;4.59;80.34
70009;BME280;59542;37.950;-122.338;2022-12-07T11:36:02;101959.47;;;4.48;80.33
70009;BME280;59542;37.950;-122.338;2022-12-07T11:41:02;101955.28;;;4.75;79.94
70009;BME280;59542;37.950;-122.338;2022-12-07T11:44:06;101966.75;;;4.56;81.07
70009;BME280;59542;37.950;-122.338;2022-12-07T11:46:47;101967.28;;;4.60;81.10
70009;BME280;59542;37.950;-122.338;2022-12-07T11:51:46;101966.16;;;4.53;81.19
70009;BME280;59542;37.950;-122.338;2022-12-07T11:54:34;101968.81;;;4.53;81.41
70009;BME280;59542;37.950;-122.338;2022-12-07T11:57:12;101968.81;;;4.62;81.36
70009;BME280;59542;37.950;-122.338;2022-12-07T11:59:52;101961.72;;;4.63;81.29
70009;BME280;59542;37.950;-122.338;2022-12-07T12:02:37;101964.22;;;4.64;81.19
70009;BME280;59542;37.950;-122.338;2022-12-07T12:05:15;101964.78;;;4.58;80.93
70009;BME280;59542;37.950;-122.338;2022-12-07T12:07:44;101969.25;;;4.58;81.14
70009;BME280;59542;37.950;-122.338;2022-12-07T12:10:48;101970.34;;;4.55;80.77
70009;BME280;59542;37.950;-122.338;2022-12-07T12:16:09;101974.81;;;4.55;80.03
70009;BME280;59542;37.950;-122.338;2022-12-07T12:21:16;101973.69;;;4.47;80.25
70009;BME280;59542;37.950;-122.338;2022-12-07T12:23:48;101971.34;;;4.44;80.38
70009;BME280;59542;37.950;-122.338;2022-12-07T12:26:20;101974.81;;;4.55;79.69
70009;BME280;59542;37.950;-122.338;2022-12-07T12:28:52;101975.78;;;4.54;79.45
70009;BME280;59542;37.950;-122.338;2022-12-07T12:33:50;101979.84;;;4.48;79.71
70009;BME280;59542;37.950;-122.338;2022-12-07T12:36:17;101982.63;;;4.37;79.99
70009;BME280;59542;37.950;-122.338;2022-12-07T12:38:48;101980.66;;;4.48;79.69
70009;BME280;59542;37.950;-122.338;2022-12-07T12:47:02;101993.22;;;4.37;80.98
70009;BME280;59542;37.950;-122.338;2022-12-07T12:57:35;102002.84;;;4.47;80.54
70009;BME280;59542;37.950;-122.338;2022-12-07T13:00:22;101995.19;;;4.44;80.38
70009;BME280;59542;37.950;-122.338;2022-12-07T13:02:54;102002.44;;;4.42;80.65
70009;BME280;59542;37.950;-122.338;2022-12-07T13:05:23;102002.28;;;4.34;80.81
70009;BME280;59542;37.950;-122.338;2022-12-07T13:07:59;102008.00;;;4.30;80.83
70009;BME280;59542;37.950;-122.338;2022-12-07T13:15:43;102006.59;;;4.26;80.64
70009;BME280;59542;37.950;-122.338;2022-12-07T13:31:40;102022.31;;;4.08;80.19
70009;BME280;59542;37.950;-122.338;2022-12-07T13:34:29;102025.09;;;4.06;80.66
70009;BME280;59542;37.950;-122.338;2022-12-07T13:36:56;102023.97;;;4.09;80.57
70009;BME280;59542;37.950;-122.338;2022-12-07T13:39:25;102030.94;;;4.10;80.65
70009;BME280;59542;37.950;-122.338;2022-12-07T13:41:54;102030.25;;;4.08;80.94
70009;BME280;59542;37.950;-122.338;2022-12-07T13:44:24;102037.22;;;4.09;81.30
70009;BME280;59542;37.950;-122.338;2022-12-07T13:49:29;102037.22;;;4.09;81.39
70009;BME280;59542;37.950;-122.338;2022-12-07T13:52:13;102039.88;;;4.09;81.79
70009;BME280;59542;37.950;-122.338;2022-12-07T13:57:25;102036.69;;;4.15;81.94
70009;BME280;59542;37.950;-122.338;2022-12-07T13:59:52;102043.94;;;4.13;82.02
70009;BME280;59542;37.950;-122.338;2022-12-07T14:02:28;102034.72;;;4.07;82.24
70009;BME280;59542;37.950;-122.338;2022-12-07T14:05:22;102034.19;;;4.13;82.25
70009;BME280;59542;37.950;-122.338;2022-12-07T14:07:54;102041.59;;;4.19;81.99
70009;BME280;59542;37.950;-122.338;2022-12-07T14:10:28;102042.28;;;4.21;81.85
70009;BME280;59542;37.950;-122.338;2022-12-07T14:12:55;102046.75;;;4.21;81.57
70009;BME280;59542;37.950;-122.338;2022-12-07T14:15:25;102052.31;;;4.18;81.52
70009;BME280;59542;37.950;-122.338;2022-12-07T14:17:54;102054.97;;;4.18;81.43
70009;BME280;59542;37.950;-122.338;2022-12-07T14:20:38;102060.66;;;4.13;81.41
70009;BME280;59542;37.950;-122.338;2022-12-07T14:23:19;102057.03;;;4.14;81.14
70009;BME280;59542;37.950;-122.338;2022-12-07T14:25:50;102058.06;;;4.23;80.51
70009;BME280;59542;37.950;-122.338;2022-12-07T14:28:27;102059.97;;;4.11;80.56
70009;BME280;59542;37.950;-122.338;2022-12-07T14:30:54;102062.03;;;4.08;80.57
70009;BME280;59542;37.950;-122.338;2022-12-07T14:33:21;102073.72;;;4.05;80.43
70009;BME280;59542;37.950;-122.338;2022-12-07T14:35:47;102077.34;;;4.04;80.41
70009;BME280;59542;37.950;-122.338;2022-12-07T14:38:15;102063.81;;;3.97;80.42
70009;BME280;59542;37.950;-122.338;2022-12-07T14:40:41;102068.97;;;3.99;80.38
70009;BME280;59542;37.950;-122.338;2022-12-07T14:43:12;102073.72;;;3.95;80.28
70009;BME280;59542;37.950;-122.338;2022-12-07T14:45:40;102072.28;;;3.91;80.09
70009;BME280;59542;37.950;-122.338;2022-12-07T14:48:10;102075.91;;;3.90;79.85
70009;BME280;59542;37.950;-122.338;2022-12-07T14:50:43;102079.09;;;3.84;79.86
70009;BME280;59542;37.950;-122.338;2022-12-07T14:53:14;102078.38;;;3.82;79.70
70009;BME280;59542;37.950;-122.338;2022-12-07T14:55:42;102082.00;;;3.81;79.84
70009;BME280;59542;37.950;-122.338;2022-12-07T14:58:16;102084.50;;;3.83;79.73
70009;BME280;59542;37.950;-122.338;2022-12-07T15:00:42;102082.84;;;3.82;79.65
70009;BME280;59542;37.950;-122.338;2022-12-07T15:03:09;102083.41;;;3.85;79.47
70009;BME280;59542;37.950;-122.338;2022-12-07T15:05:36;102093.69;;;3.79;79.34
70009;BME280;59542;37.950;-122.338;2022-12-07T15:08:03;102089.63;;;3.75;79.53